Time;durP1;ratioP1;P1;durP2;ratioP2;P2;SDS_P1;SDS_P2;PMS_P1;PMS_P2;Temp;Humidity;BMP_temperature;BMP_pressure;BME280_temperature;BME280_humidity;BME280_pressure;Samples;Min_cycle;Max_cycle;Signal;HPM_P1;HPM_P2
2023/06/19 00:00:36;;;;;;;19.60;7.63;;;23.50;82.40;;;;;;5033849;28;20948;-78
2023/06/19 00:03:04;;;;;;;20.93;8.37;;;23.50;82.50;;;;;;5033154;28;21008;-78
2023/06/19 00:05:34;;;;;;;20.23;8.10;;;23.50;82.50;;;;;;5031936;28;20461;-78
2023/06/19 00:08:03;;;;;;;20.97;8.03;;;23.50;82.50;;;;;;5033190;28;20451;-78
2023/06/19 00:10:31;;;;;;;19.70;8.67;;;23.50;82.60;;;;;;5032122;28;20509;-78
2023/06/19 00:12:59;;;;;;;19.60;8.43;;;23.40;82.60;;;;;;5032033;28;20537;-78
2023/06/19 00:15:29;;;;;;;19.10;8.53;;;23.40;82.60;;;;;;5033171;28;20460;-77
2023/06/19 00:17:58;;;;;;;20.30;9.37;;;23.40;82.70;;;;;;5031783;28;20520;-78
2023/06/19 00:20:26;;;;;;;21.70;8.90;;;23.40;82.80;;;;;;5033350;28;20962;-78
2023/06/19 00:22:56;;;;;;;19.53;8.13;;;23.40;82.90;;;;;;5032898;28;20568;-78
2023/06/19 00:25:24;;;;;;;20.00;8.70;;;23.40;82.90;;;;;;5033088;28;20427;-78
2023/06/19 00:27:52;;;;;;;20.10;9.00;;;23.40;83.00;;;;;;5033325;28;20486;-78
2023/06/19 00:30:20;;;;;;;20.30;9.40;;;23.30;82.90;;;;;;5032569;28;20447;-78
2023/06/19 00:32:50;;;;;;;20.63;8.67;;;23.30;83.10;;;;;;5035356;28;20530;-78
2023/06/19 00:35:18;;;;;;;22.00;9.83;;;23.30;83.20;;;;;;5036081;28;20463;-79
2023/06/19 00:37:48;;;;;;;21.40;10.10;;;23.30;83.20;;;;;;5037353;28;20570;-79
2023/06/19 00:40:28;;;;;;;19.90;9.73;;;23.20;83.20;;;;;;5036909;28;20449;-79
2023/06/19 00:42:56;;;;;;;20.53;9.80;;;23.20;83.20;;;;;;5035114;28;20482;-78
2023/06/19 00:45:25;;;;;;;20.30;9.50;;;23.20;83.20;;;;;;5035026;28;20494;-77
2023/06/19 00:47:54;;;;;;;22.03;10.30;;;23.10;83.10;;;;;;5038489;28;20501;-78
2023/06/19 00:50:23;;;;;;;21.33;9.77;;;23.10;83.20;;;;;;5034793;28;20522;-79
2023/06/19 00:52:52;;;;;;;19.97;9.50;;;23.10;83.10;;;;;;5043388;28;20446;-79
2023/06/19 00:55:22;;;;;;;21.13;10.00;;;23.10;83.20;;;;;;5043526;28;20445;-79
2023/06/19 00:57:52;;;;;;;20.60;10.10;;;23.10;83.30;;;;;;5048411;28;20979;-79
2023/06/19 01:00:20;;;;;;;22.27;10.03;;;23.00;83.20;;;;;;5049286;28;20450;-78
2023/06/19 01:02:50;;;;;;;21.27;9.83;;;23.00;83.30;;;;;;5041166;28;20968;-76
2023/06/19 01:05:19;;;;;;;19.87;8.90;;;23.00;83.50;;;;;;5036837;28;20433;-77
2023/06/19 01:07:58;;;;;;;19.90;9.17;;;23.00;83.60;;;;;;5035457;28;21008;-75
2023/06/19 01:10:33;;;;;;;20.37;9.87;;;22.90;83.70;;;;;;5041242;28;20854;-79
2023/06/19 01:13:07;;;;;;;20.27;10.43;;;22.90;83.90;;;;;;5045631;28;20429;-78
2023/06/19 01:15:37;;;;;;;20.43;8.97;;;22.90;84.00;;;;;;5042743;28;20857;-79
2023/06/19 01:18:06;;;;;;;20.27;9.67;;;22.90;84.10;;;;;;5037508;28;20463;-79
2023/06/19 01:20:34;;;;;;;20.57;9.50;;;22.90;84.20;;;;;;5042182;28;20447;-78
2023/06/19 01:23:08;;;;;;;19.80;8.60;;;22.80;84.10;;;;;;5041047;28;20542;-78
2023/06/19 01:25:37;;;;;;;21.83;10.30;;;22.80;84.30;;;;;;5044063;28;20971;-78
2023/06/19 01:28:09;;;;;;;23.00;10.33;;;22.80;84.40;;;;;;5056493;28;20538;-79
2023/06/19 01:30:38;;;;;;;19.97;9.70;;;22.80;84.40;;;;;;5054238;28;20485;-79
2023/06/19 01:33:13;;;;;;;20.40;10.03;;;22.80;84.40;;;;;;5054286;28;20502;-79
2023/06/19 01:35:44;;;;;;;20.53;10.40;;;22.80;84.50;;;;;;5051616;28;20434;-79
2023/06/19 01:38:15;;;;;;;20.97;9.97;;;22.80;84.40;;;;;;5053017;28;20473;-79
2023/06/19 01:40:43;;;;;;;20.20;10.53;;;22.70;84.40;;;;;;5054505;28;20427;-78
2023/06/19 01:43:12;;;;;;;20.30;11.27;;;22.70;84.50;;;;;;5045393;28;20558;-77
2023/06/19 01:45:41;;;;;;;20.80;10.10;;;22.70;84.60;;;;;;5041302;28;20492;-79
2023/06/19 01:48:09;;;;;;;20.27;9.90;;;22.70;84.60;;;;;;5040862;28;20525;-79
2023/06/19 01:50:39;;;;;;;20.30;10.00;;;22.60;85.20;;;;;;5039307;28;20432;-79
2023/06/19 01:53:07;;;;;;;20.77;10.40;;;22.60;84.60;;;;;;5040211;28;20450;-79
2023/06/19 01:55:37;;;;;;;20.93;9.40;;;22.60;84.60;;;;;;5038482;28;20443;-79
2023/06/19 01:58:05;;;;;;;20.07;10.73;;;22.60;84.70;;;;;;5041734;28;20458;-79
2023/06/19 02:00:35;;;;;;;20.20;10.70;;;22.60;84.60;;;;;;5038352;28;20855;-79
2023/06/19 02:03:03;;;;;;;22.23;10.50;;;22.60;84.70;;;;;;5035849;28;21022;-78
2023/06/19 02:05:32;;;;;;;20.50;10.17;;;22.60;84.70;;;;;;5035671;28;20497;-78
2023/06/19 02:08:02;;;;;;;21.10;10.40;;;22.60;85.40;;;;;;5035705;28;20555;-78
2023/06/19 02:10:30;;;;;;;20.33;10.37;;;22.50;84.70;;;;;;5037718;28;20501;-78
2023/06/19 02:12:59;;;;;;;19.70;10.30;;;22.50;84.70;;;;;;5037912;28;20450;-79
2023/06/19 02:15:28;;;;;;;19.63;10.13;;;22.50;84.70;;;;;;5039279;28;20431;-78
2023/06/19 02:17:56;;;;;;;21.73;10.27;;;22.50;84.70;;;;;;5035784;28;20473;-78
2023/06/19 02:20:26;;;;;;;20.00;9.50;;;22.50;84.80;;;;;;5036764;28;20417;-79
2023/06/19 02:22:57;;;;;;;20.77;9.83;;;22.50;84.90;;;;;;5036349;28;20534;-78
2023/06/19 02:25:25;;;;;;;21.67;10.50;;;22.50;85.00;;;;;;5034203;28;20952;-78
2023/06/19 02:27:53;;;;;;;20.93;10.20;;;22.50;85.00;;;;;;5036379;28;20581;-78
2023/06/19 02:30:23;;;;;;;20.17;10.63;;;22.40;84.90;;;;;;5036833;28;20469;-79
2023/06/19 02:32:51;;;;;;;20.03;10.17;;;22.40;85.00;;;;;;5037312;28;20446;-79
2023/06/19 02:35:20;;;;;;;20.70;10.83;;;22.40;85.10;;;;;;5036559;28;20436;-79
2023/06/19 02:37:48;;;;;;;19.83;10.40;;;22.40;85.10;;;;;;5034243;28;20586;-78
2023/06/19 02:40:17;;;;;;;21.47;11.03;;;22.40;85.10;;;;;;5034779;28;20865;-78
2023/06/19 02:42:46;;;;;;;19.63;9.47;;;22.40;85.10;;;;;;5034699;28;20493;-78
2023/06/19 02:45:16;;;;;;;21.20;10.10;;;22.40;85.10;;;;;;5033446;28;20504;-78
2023/06/19 02:47:45;;;;;;;18.87;9.07;;;22.40;85.10;;;;;;5036063;28;20474;-78
2023/06/19 02:50:14;;;;;;;20.10;9.53;;;22.40;85.10;;;;;;5036003;28;20435;-78
2023/06/19 02:52:42;;;;;;;21.03;10.67;;;22.40;85.20;;;;;;5034494;28;20547;-78
2023/06/19 02:55:10;;;;;;;21.20;10.00;;;22.40;85.30;;;;;;5034912;28;20479;-79
2023/06/19 02:57:38;;;;;;;20.27;10.30;;;22.30;85.30;;;;;;5034844;28;20502;-79
2023/06/19 03:00:09;;;;;;;21.40;11.53;;;22.30;85.30;;;;;;5033257;28;20439;-78
2023/06/19 03:02:37;;;;;;;20.10;11.07;;;22.30;85.40;;;;;;5033158;28;20463;-78
2023/06/19 03:05:07;;;;;;;21.00;10.77;;;22.30;85.50;;;;;;5033632;28;20913;-78
2023/06/19 03:07:36;;;;;;;20.90;10.93;;;22.30;85.50;;;;;;5032994;28;20475;-78
2023/06/19 03:10:05;;;;;;;22.13;11.07;;;22.30;85.60;;;;;;5034734;28;20443;-78
2023/06/19 03:12:34;;;;;;;20.80;11.60;;;22.30;85.70;;;;;;5033242;28;20831;-79
2023/06/19 03:15:03;;;;;;;20.70;10.60;;;22.30;85.70;;;;;;5034420;28;20489;-78
2023/06/19 03:17:33;;;;;;;20.30;10.37;;;22.30;85.80;;;;;;5032892;28;20478;-78
2023/06/19 03:20:05;;;;;;;20.80;10.67;;;22.30;85.90;;;;;;5033184;28;20542;-78
2023/06/19 03:22:35;;;;;;;22.10;12.03;;;22.30;86.00;;;;;;5032708;28;20477;-78
2023/06/19 03:25:04;;;;;;;20.27;10.97;;;22.20;86.00;;;;;;5032992;28;20439;-78
2023/06/19 03:27:32;;;;;;;20.50;11.43;;;22.20;86.00;;;;;;5032711;28;20529;-78
2023/06/19 03:30:00;;;;;;;20.37;10.33;;;22.20;86.10;;;;;;5033806;28;20451;-78
2023/06/19 03:32:37;;;;;;;21.10;11.67;;;22.20;86.20;;;;;;5032808;28;20442;-78
2023/06/19 03:35:06;;;;;;;20.93;12.27;;;22.20;86.30;;;;;;5032530;28;20960;-78
2023/06/19 03:37:41;;;;;;;20.67;10.87;;;22.20;86.50;;;;;;5032441;28;20475;-78
2023/06/19 03:40:13;;;;;;;20.77;11.20;;;22.20;86.70;;;;;;5033775;28;20523;-78
2023/06/19 03:42:44;;;;;;;22.87;11.23;;;22.20;86.80;;;;;;5032592;28;21059;-78
2023/06/19 03:45:13;;;;;;;20.60;11.40;;;22.20;86.90;;;;;;5032514;28;20534;-78
2023/06/19 03:47:41;;;;;;;20.23;11.17;;;22.20;87.00;;;;;;5032811;28;20466;-78
2023/06/19 03:50:10;;;;;;;20.50;11.60;;;22.20;87.10;;;;;;5032572;28;20450;-78
2023/06/19 03:52:50;;;;;;;20.40;10.90;;;22.10;87.10;;;;;;5032084;28;20505;-77
2023/06/19 03:55:18;;;;;;;20.80;11.10;;;22.10;87.10;;;;;;5032101;28;20520;-78
2023/06/19 03:57:47;;;;;;;20.83;11.57;;;22.10;87.20;;;;;;5034213;28;20497;-79
2023/06/19 04:00:18;;;;;;;20.07;10.73;;;22.10;87.30;;;;;;5032820;28;20475;-78
2023/06/19 04:02:49;;;;;;;22.10;11.50;;;22.10;87.40;;;;;;5032483;28;20565;-79
2023/06/19 04:05:19;;;;;;;20.10;10.20;;;22.10;87.50;;;;;;5033730;28;20525;-78
2023/06/19 04:07:48;;;;;;;19.97;11.33;;;22.10;87.60;;;;;;5033614;28;20458;-78
2023/06/19 04:10:17;;;;;;;21.10;11.73;;;22.10;87.70;;;;;;5032214;28;20435;-78
2023/06/19 04:12:46;;;;;;;21.17;11.40;;;22.10;87.90;;;;;;5032291;28;20518;-78
2023/06/19 04:15:14;;;;;;;24.13;13.50;;;22.10;88.00;;;;;;5032292;28;20476;-78
2023/06/19 04:17:42;;;;;;;23.67;13.80;;;22.00;88.10;;;;;;5033601;28;20459;-78
2023/06/19 04:20:12;;;;;;;20.57;11.00;;;22.00;88.20;;;;;;5032511;28;20450;-78
2023/06/19 04:22:41;;;;;;;23.90;13.03;;;22.00;88.20;;;;;;5032319;28;20493;-78
2023/06/19 04:25:10;;;;;;;22.93;12.47;;;22.00;88.20;;;;;;5033598;28;20437;-78
2023/06/19 04:27:40;;;;;;;21.77;12.13;;;22.00;88.40;;;;;;5032231;28;20569;-78
2023/06/19 04:30:09;;;;;;;22.93;12.20;;;22.00;88.50;;;;;;5032076;28;20486;-78
2023/06/19 04:32:40;;;;;;;22.03;11.90;;;22.00;88.60;;;;;;5033493;28;20474;-78
2023/06/19 04:35:09;;;;;;;20.70;10.60;;;22.00;88.70;;;;;;5035821;28;20435;-78
2023/06/19 04:37:38;;;;;;;21.00;11.80;;;22.00;88.80;;;;;;5037138;28;20528;-78
2023/06/19 04:40:08;;;;;;;21.20;11.77;;;22.00;88.90;;;;;;5037659;28;20439;-78
2023/06/19 04:42:38;;;;;;;21.30;10.57;;;22.00;89.00;;;;;;5035457;28;20546;-78
2023/06/19 04:45:09;;;;;;;20.50;11.60;;;22.00;89.10;;;;;;5035306;28;20521;-78
2023/06/19 04:47:37;;;;;;;20.30;12.27;;;22.00;89.40;;;;;;5035437;28;20470;-78
2023/06/19 04:50:20;;;;;;;27.50;18.33;;;22.00;89.50;;;;;;5035533;28;20477;-78
2023/06/19 04:52:50;;;;;;;11.80;10.60;;;22.00;89.70;;;;;;5035231;28;20482;-78
2023/06/19 04:55:19;;;;;;;10.37;9.27;;;22.00;89.80;;;;;;5036864;28;20465;-78
2023/06/19 04:57:47;;;;;;;10.53;9.40;;;22.00;90.00;;;;;;5036290;28;20458;-78
2023/06/19 05:00:19;;;;;;;12.00;10.80;;;22.00;90.00;;;;;;5038183;28;20497;-78
2023/06/19 05:02:47;;;;;;;12.17;10.23;;;22.00;90.10;;;;;;5036339;28;20419;-77
2023/06/19 05:05:16;;;;;;;10.90;9.93;;;22.00;90.20;;;;;;5036841;28;20474;-77
2023/06/19 05:07:45;;;;;;;11.17;10.17;;;22.00;90.20;;;;;;5037818;28;20804;-78
2023/06/19 05:10:13;;;;;;;10.50;9.47;;;22.00;90.30;;;;;;5036465;28;20455;-79
2023/06/19 05:12:41;;;;;;;10.63;9.63;;;22.00;90.30;;;;;;5038088;28;20521;-78
2023/06/19 05:15:10;;;;;;;9.83;8.83;;;22.00;90.30;;;;;;5036397;28;20474;-78
2023/06/19 05:17:40;;;;;;;9.53;8.63;;;22.10;90.50;;;;;;5036199;28;20466;-78
2023/06/19 05:20:10;;;;;;;11.07;9.10;;;22.10;90.50;;;;;;5037652;28;20441;-79
2023/06/19 05:22:39;;;;;;;10.87;9.77;;;22.10;90.50;;;;;;5036004;28;20450;-79
2023/06/19 05:25:08;;;;;;;9.37;8.33;;;22.10;90.60;;;;;;5038225;28;21049;-78
2023/06/19 05:27:36;;;;;;;10.60;9.40;;;22.10;90.60;;;;;;5036649;28;20463;-79
2023/06/19 05:30:05;;;;;;;13.73;12.07;;;22.10;90.60;;;;;;5040753;28;20473;-79
2023/06/19 05:32:34;;;;;;;10.80;9.80;;;22.20;90.70;;;;;;5039758;28;20526;-78
2023/06/19 05:35:03;;;;;;;11.23;10.10;;;22.20;90.70;;;;;;5035467;28;20449;-79
2023/06/19 05:37:31;;;;;;;10.20;9.20;;;22.20;90.80;;;;;;5037784;28;20557;-79
2023/06/19 05:39:59;;;;;;;10.50;9.47;;;22.20;90.80;;;;;;5039358;28;20474;-77
2023/06/19 05:42:30;;;;;;;12.03;9.23;;;22.20;90.90;;;;;;5038024;28;20497;-79
2023/06/19 05:45:01;;;;;;;9.27;8.30;;;22.30;91.00;;;;;;5038964;28;20491;-78
2023/06/19 05:47:30;;;;;;;9.33;8.40;;;22.30;91.00;;;;;;5055600;28;20490;-78
2023/06/19 05:49:59;;;;;;;10.50;9.50;;;22.30;91.10;;;;;;5054819;28;20431;-79
2023/06/19 05:52:29;;;;;;;9.20;8.20;;;22.30;91.10;;;;;;5056827;28;20956;-79
2023/06/19 05:54:58;;;;;;;10.70;9.10;;;22.30;91.10;;;;;;5056354;28;20435;-79
2023/06/19 05:57:26;;;;;;;10.10;9.10;;;22.30;91.20;;;;;;5054069;28;20467;-79
2023/06/19 05:59:56;;;;;;;9.90;9.00;;;22.30;91.20;;;;;;5051629;28;20451;-79
2023/06/19 06:02:24;;;;;;;10.87;8.90;;;22.40;91.30;;;;;;5048598;28;20451;-79
2023/06/19 06:04:53;;;;;;;11.60;9.40;;;22.40;91.40;;;;;;5046709;28;20566;-79
2023/06/19 06:07:22;;;;;;;10.80;9.80;;;22.40;91.40;;;;;;5045408;28;20459;-78
2023/06/19 06:09:56;;;;;;;10.83;9.73;;;22.50;91.50;;;;;;5043507;28;20474;-79
2023/06/19 06:12:27;;;;;;;10.30;9.30;;;22.60;91.60;;;;;;5049484;28;20423;-79
2023/06/19 06:18:03;;;;;;;10.10;8.97;;;22.90;91.80;;;;;;5046746;28;20489;-79
2023/06/19 06:20:32;;;;;;;10.70;9.60;;;23.20;91.80;;;;;;5047149;28;20441;-79
2023/06/19 06:23:00;;;;;;;11.63;10.53;;;23.40;91.80;;;;;;5048289;28;20435;-79
2023/06/19 06:25:30;;;;;;;10.73;9.73;;;23.60;91.90;;;;;;5047777;28;20502;-79
2023/06/19 06:28:02;;;;;;;11.10;9.30;;;23.70;91.80;;;;;;5053040;28;20451;-80
2023/06/19 06:30:30;;;;;;;10.27;9.30;;;23.70;91.70;;;;;;5053161;28;20478;-79
2023/06/19 06:32:58;;;;;;;13.93;11.97;;;23.70;91.60;;;;;;5050486;28;20474;-80
2023/06/19 06:35:27;;;;;;;11.73;10.60;;;23.70;91.60;;;;;;5044404;28;20448;-80
2023/06/19 06:37:55;;;;;;;10.70;9.00;;;23.70;91.60;;;;;;5045123;28;20885;-80
2023/06/19 06:40:23;;;;;;;11.00;8.87;;;23.70;92.00;;;;;;5039083;28;20466;-80
2023/06/19 06:42:54;;;;;;;11.53;10.43;;;23.70;91.70;;;;;;5039676;28;20443;-80
2023/06/19 06:45:22;;;;;;;9.87;8.50;;;23.70;91.70;;;;;;5045740;28;20462;-80
2023/06/19 06:47:53;;;;;;;11.70;9.97;;;23.70;91.70;;;;;;5043067;28;20458;-80
2023/06/19 06:50:23;;;;;;;9.93;8.93;;;23.70;91.70;;;;;;5042091;28;20483;-80
2023/06/19 06:52:53;;;;;;;9.77;8.77;;;23.70;91.70;;;;;;5044075;28;20454;-80
2023/06/19 06:55:22;;;;;;;13.27;9.20;;;23.70;91.80;;;;;;5042999;28;20455;-80
2023/06/19 06:57:51;;;;;;;11.30;9.50;;;23.70;91.70;;;;;;5041965;28;20542;-79
2023/06/19 07:00:27;;;;;;;12.07;9.23;;;23.80;91.80;;;;;;5046975;28;20477;-79
2023/06/19 07:02:56;;;;;;;10.70;9.70;;;23.80;91.90;;;;;;5041354;28;20445;-80
2023/06/19 07:05:25;;;;;;;11.50;9.17;;;23.80;91.90;;;;;;5041500;28;20474;-80
2023/06/19 07:07:54;;;;;;;10.43;8.93;;;23.80;91.90;;;;;;5040477;28;20465;-79
2023/06/19 07:10:23;;;;;;;11.57;9.70;;;23.90;91.90;;;;;;5040563;28;20789;-79
2023/06/19 07:12:52;;;;;;;11.90;10.23;;;24.00;91.90;;;;;;5039432;28;20462;-80
2023/06/19 07:15:25;;;;;;;12.17;9.90;;;24.00;92.00;;;;;;5056434;28;20442;-79
2023/06/19 07:17:53;;;;;;;10.33;9.30;;;24.30;92.20;;;;;;5041783;28;20485;-80
2023/06/19 07:20:22;;;;;;;10.07;8.73;;;24.40;92.30;;;;;;5038760;28;20542;-80
2023/06/19 07:22:53;;;;;;;12.17;9.50;;;24.50;92.40;;;;;;5037110;28;20458;-79
2023/06/19 07:25:24;;;;;;;9.67;8.67;;;24.60;92.30;;;;;;5038458;28;20462;-80
2023/06/19 07:27:52;;;;;;;11.93;9.07;;;24.70;92.30;;;;;;5038808;28;20506;-80
2023/06/19 07:30:22;;;;;;;8.93;7.57;;;24.90;92.50;;;;;;5038935;28;20496;-80
2023/06/19 07:32:54;;;;;;;9.87;8.90;;;25.00;92.50;;;;;;5037838;28;20451;-78
2023/06/19 07:35:23;;;;;;;9.17;8.27;;;25.10;92.40;;;;;;5038470;28;20446;-79
2023/06/19 07:37:51;;;;;;;9.00;7.57;;;25.20;92.40;;;;;;5037441;28;21079;-79
2023/06/19 07:40:20;;;;;;;10.60;8.10;;;25.20;92.40;;;;;;5037915;28;20443;-79
2023/06/19 07:42:49;;;;;;;8.67;7.80;;;25.20;92.30;;;;;;5037442;28;20454;-79
2023/06/19 07:45:17;;;;;;;8.80;7.90;;;25.20;92.40;;;;;;5036384;28;20501;-79
2023/06/19 07:47:56;;;;;;;10.90;8.50;;;25.20;92.40;;;;;;5038466;28;20536;-79
2023/06/19 07:50:25;;;;;;;10.13;7.67;;;25.10;92.50;;;;;;5039014;28;20451;-79
2023/06/19 07:52:55;;;;;;;9.60;7.37;;;25.20;92.50;;;;;;5038573;28;20461;-79
2023/06/19 07:55:23;;;;;;;9.47;7.57;;;25.20;92.50;;;;;;5038912;28;20450;-79
2023/06/19 07:57:56;;;;;;;10.40;8.40;;;25.20;92.60;;;;;;5038967;28;20471;-80
2023/06/19 08:00:24;;;;;;;8.57;7.67;;;25.30;92.60;;;;;;5038913;28;20440;-80
2023/06/19 08:02:54;;;;;;;9.60;8.60;;;25.50;92.70;;;;;;5038886;28;20443;-80
2023/06/19 08:05:23;;;;;;;9.93;9.00;;;25.60;92.70;;;;;;5040264;28;20554;-79
2023/06/19 08:07:52;;;;;;;10.10;7.87;;;25.80;92.70;;;;;;5044074;28;20508;-80
2023/06/19 08:10:22;;;;;;;10.13;9.23;;;25.90;92.60;;;;;;5046134;28;20438;-79
2023/06/19 08:12:50;;;;;;;8.87;7.97;;;25.90;92.50;;;;;;5047331;28;20453;-80
2023/06/19 08:15:21;;;;;;;13.70;10.23;;;26.00;92.50;;;;;;5052092;28;20450;-80
2023/06/19 08:17:49;;;;;;;9.17;8.27;;;26.10;92.60;;;;;;5049173;28;20565;-80
2023/06/19 08:20:19;;;;;;;10.70;9.60;;;26.10;92.60;;;;;;5043634;28;20843;-81
2023/06/19 08:23:08;;;;;;;10.17;9.07;;;26.10;92.50;;;;;;5046496;28;20481;-78
2023/06/19 08:25:37;;;;;;;10.17;9.17;;;26.10;92.40;;;;;;5044469;28;21038;-81
2023/06/19 08:28:09;;;;;;;12.27;8.43;;;26.10;92.40;;;;;;5043932;28;20463;-81
2023/06/19 08:30:37;;;;;;;9.17;8.20;;;26.00;92.50;;;;;;5045120;28;20466;-80
2023/06/19 08:33:06;;;;;;;8.77;7.87;;;26.10;92.70;;;;;;5053826;28;20438;-80
2023/06/19 08:35:36;;;;;;;9.03;7.57;;;26.20;92.70;;;;;;5052768;28;20473;-81
2023/06/19 08:38:05;;;;;;;8.90;7.60;;;26.30;92.90;;;;;;5051419;28;20553;-80
2023/06/19 08:40:36;;;;;;;9.27;7.77;;;26.50;92.80;;;;;;5051410;28;20439;-81
2023/06/19 08:43:04;;;;;;;7.97;6.80;;;26.60;92.70;;;;;;5051905;28;20449;-80
2023/06/19 08:45:32;;;;;;;9.80;7.10;;;26.70;92.60;;;;;;5049231;28;20530;-81
2023/06/19 08:48:03;;;;;;;7.20;6.50;;;26.80;92.40;;;;;;5049841;28;20463;-81
2023/06/19 08:50:37;;;;;;;7.27;6.50;;;26.90;92.30;;;;;;5051400;28;20457;-80
2023/06/19 08:53:07;;;;;;;7.90;5.90;;;27.00;92.20;;;;;;5050611;28;20451;-80
2023/06/19 08:55:36;;;;;;;7.03;5.43;;;27.00;92.10;;;;;;5050321;28;20454;-81
2023/06/19 08:58:04;;;;;;;7.73;6.70;;;27.10;91.90;;;;;;5050282;28;20538;-80
2023/06/19 09:00:32;;;;;;;8.30;6.30;;;27.00;91.80;;;;;;5051385;28;20455;-80
2023/06/19 09:03:04;;;;;;;8.30;7.27;;;27.10;91.70;;;;;;5053433;28;20426;-80
2023/06/19 09:05:49;;;;;;;7.60;6.90;;;27.10;91.60;;;;;;5046982;28;21007;-80
2023/06/19 09:08:23;;;;;;;7.87;7.07;;;27.10;91.60;;;;;;5047249;28;20458;-80
2023/06/19 09:10:57;;;;;;;8.23;7.43;;;27.20;91.80;;;;;;5045876;28;20447;-81
2023/06/19 09:13:26;;;;;;;10.00;6.23;;;27.30;91.70;;;;;;5044681;28;20940;-82
2023/06/19 09:16:00;;;;;;;6.77;5.77;;;27.30;91.60;;;;;;5045326;28;20481;-81
2023/06/19 09:18:29;;;;;;;8.80;7.03;;;27.30;91.50;;;;;;5044946;28;20908;-81
2023/06/19 09:20:58;;;;;;;6.83;6.13;;;27.40;91.50;;;;;;5049886;28;20455;-81
2023/06/19 09:23:30;;;;;;;7.83;6.30;;;27.40;91.40;;;;;;5053375;28;20465;-81
2023/06/19 09:26:03;;;;;;;7.60;6.70;;;27.30;91.40;;;;;;5048878;28;20474;-81
2023/06/19 09:28:42;;;;;;;6.83;5.90;;;27.40;91.50;;;;;;5047878;28;20520;-80
2023/06/19 09:31:12;;;;;;;7.33;5.73;;;27.40;91.50;;;;;;5048374;28;20411;-80
2023/06/19 09:33:41;;;;;;;6.70;5.97;;;27.40;91.60;;;;;;5049452;28;20435;-81
2023/06/19 09:36:09;;;;;;;6.60;5.80;;;27.40;91.50;;;;;;5049512;28;20435;-80
2023/06/19 09:38:40;;;;;;;8.73;6.13;;;27.40;91.40;;;;;;5046822;28;20459;-81
2023/06/19 09:41:12;;;;;;;7.60;6.30;;;27.40;91.40;;;;;;5045669;28;20438;-80
2023/06/19 09:43:44;;;;;;;11.07;6.10;;;27.30;91.40;;;;;;5044896;28;20542;-79
2023/06/19 09:46:15;;;;;;;7.43;5.67;;;27.20;91.40;;;;;;5045097;28;20558;-80
2023/06/19 09:48:46;;;;;;;6.80;5.47;;;27.20;91.50;;;;;;5045725;28;20459;-80
2023/06/19 09:51:19;;;;;;;7.73;7.03;;;27.10;91.50;;;;;;5044399;28;20455;-80
2023/06/19 09:53:53;;;;;;;10.90;10.00;;;27.20;91.60;;;;;;5043708;28;20450;-81
2023/06/19 09:56:24;;;;;;;12.33;11.27;;;27.20;91.60;;;;;;5045448;28;20445;-81
2023/06/19 09:58:55;;;;;;;10.57;9.63;;;27.10;91.70;;;;;;5051391;28;20493;-80
2023/06/19 10:01:26;;;;;;;8.00;7.30;;;27.10;91.80;;;;;;5045698;28;20466;-80
2023/06/19 10:04:06;;;;;;;8.23;7.43;;;27.00;91.90;;;;;;5044508;28;20850;-80
2023/06/19 10:06:45;;;;;;;8.90;7.60;;;26.90;92.00;;;;;;5046506;28;20525;-80
2023/06/19 10:09:18;;;;;;;9.93;7.17;;;26.80;92.10;;;;;;5042466;28;20466;-80
2023/06/19 10:11:50;;;;;;;7.40;6.70;;;26.70;92.10;;;;;;5049855;28;20450;-80
2023/06/19 10:14:20;;;;;;;9.63;8.80;;;26.70;92.30;;;;;;5049827;28;20470;-80
2023/06/19 10:16:48;;;;;;;12.60;11.60;;;26.60;92.50;;;;;;5051065;28;20806;-80
2023/06/19 10:19:18;;;;;;;14.70;13.50;;;26.60;92.60;;;;;;5047802;28;20556;-80
2023/06/19 10:21:49;;;;;;;18.47;16.73;;;26.60;92.80;;;;;;5050715;28;20488;-80
2023/06/19 10:24:20;;;;;;;17.33;16.13;;;26.60;93.10;;;;;;5054026;28;20454;-80
2023/06/19 10:27:01;;;;;;;15.60;14.50;;;26.70;93.00;;;;;;5053742;28;20538;-81
2023/06/19 10:29:39;;;;;;;17.83;16.30;;;26.70;93.00;;;;;;5053797;28;20459;-81
2023/06/19 10:32:09;;;;;;;17.53;16.23;;;26.60;93.00;;;;;;5052201;28;20433;-81
2023/06/19 10:34:37;;;;;;;18.33;16.93;;;26.60;93.00;;;;;;5051033;28;20475;-81
2023/06/19 10:37:06;;;;;;;18.57;17.27;;;26.60;93.00;;;;;;5049527;28;20526;-81
2023/06/19 10:39:35;;;;;;;17.23;15.70;;;26.50;92.90;;;;;;5051691;28;20446;-81
2023/06/19 10:42:07;;;;;;;18.80;17.40;;;26.50;92.90;;;;;;5050705;28;20481;-81
2023/06/19 10:44:36;;;;;;;19.27;17.77;;;26.50;92.80;;;;;;5050704;28;20439;-81
2023/06/19 10:47:07;;;;;;;21.80;20.20;;;26.50;92.90;;;;;;5049099;28;20475;-82
2023/06/19 10:49:35;;;;;;;20.50;19.00;;;26.50;92.90;;;;;;5048296;28;20473;-81
2023/06/19 10:52:04;;;;;;;21.10;19.50;;;26.60;92.80;;;;;;5047925;28;20455;-81
2023/06/19 10:54:34;;;;;;;19.30;17.90;;;26.60;92.80;;;;;;5047890;28;20454;-81
2023/06/19 10:57:05;;;;;;;18.30;16.90;;;26.70;92.80;;;;;;5048280;28;20439;-81
2023/06/19 10:59:35;;;;;;;17.10;15.70;;;26.70;92.70;;;;;;5048301;28;20971;-81
2023/06/19 11:02:05;;;;;;;15.50;14.30;;;26.60;92.60;;;;;;5048837;28;20849;-80
2023/06/19 11:04:39;;;;;;;15.13;13.83;;;26.60;92.60;;;;;;5048236;28;20439;-80
2023/06/19 11:07:08;;;;;;;13.97;12.77;;;26.60;92.70;;;;;;5049600;28;20828;-81
2023/06/19 11:09:37;;;;;;;14.30;12.80;;;26.60;92.80;;;;;;5046485;28;20443;-80
2023/06/19 11:12:07;;;;;;;14.00;12.80;;;26.50;92.70;;;;;;5047996;28;20510;-80
2023/06/19 11:14:39;;;;;;;14.07;12.77;;;26.50;92.60;;;;;;5045568;28;20450;-80
2023/06/19 11:17:08;;;;;;;12.80;11.70;;;26.50;92.70;;;;;;5046120;28;20518;-81
2023/06/19 11:19:40;;;;;;;13.00;11.77;;;26.40;92.70;;;;;;5065375;28;20455;-80
2023/06/19 11:22:08;;;;;;;12.87;11.67;;;26.40;92.70;;;;;;5053698;28;20861;-80
2023/06/19 11:24:38;;;;;;;11.40;10.30;;;26.30;92.80;;;;;;5066630;28;20522;-81
2023/06/19 11:27:10;;;;;;;12.03;11.03;;;26.30;92.90;;;;;;5047917;28;20475;-82
2023/06/19 11:29:38;;;;;;;11.23;10.30;;;26.20;93.00;;;;;;5045865;28;20562;-81
2023/06/19 11:32:34;;;;;;;9.80;8.90;;;26.20;93.10;;;;;;5041844;28;20439;-81
2023/06/19 11:35:07;;;;;;;11.20;10.20;;;26.20;93.20;;;;;;5043760;28;20447;-81
2023/06/19 11:37:36;;;;;;;13.77;12.47;;;26.10;93.30;;;;;;5052498;28;20466;-80
2023/06/19 11:40:15;;;;;;;13.03;11.90;;;26.10;93.30;;;;;;5044640;28;20447;-78
2023/06/19 11:42:48;;;;;;;12.40;11.30;;;26.00;93.20;;;;;;5039997;28;20508;-79
2023/06/19 11:45:17;;;;;;;12.60;11.50;;;26.00;93.20;;;;;;5050040;28;20423;-79
2023/06/19 11:47:46;;;;;;;11.50;10.40;;;25.90;93.20;;;;;;5042178;28;20483;-79
2023/06/19 11:50:19;;;;;;;10.30;9.40;;;25.90;93.30;;;;;;5042088;28;20442;-79
2023/06/19 11:52:48;;;;;;;11.10;9.90;;;25.90;93.40;;;;;;5043591;28;20478;-78
2023/06/19 11:55:17;;;;;;;8.53;7.73;;;25.90;93.50;;;;;;5043018;28;20439;-79
2023/06/19 11:57:47;;;;;;;8.47;7.67;;;25.90;93.40;;;;;;5042293;28;20499;-79
2023/06/19 12:00:17;;;;;;;7.63;6.93;;;25.80;93.40;;;;;;5038733;28;20450;-78
2023/06/19 12:02:48;;;;;;;8.33;7.53;;;25.80;93.30;;;;;;5034371;28;20501;-79
2023/06/19 12:08:27;;;;;;;8.90;7.83;;;25.90;93.40;;;;;;5043431;28;20517;-79
2023/06/19 12:10:56;;;;;;;9.60;7.80;;;25.90;93.40;;;;;;5043316;28;20450;-79
2023/06/19 12:13:24;;;;;;;8.03;7.23;;;25.90;93.40;;;;;;5043325;28;20443;-78
2023/06/19 12:15:53;;;;;;;9.10;8.17;;;25.90;93.50;;;;;;5045198;28;20487;-79
2023/06/19 12:18:21;;;;;;;8.93;8.03;;;25.90;93.50;;;;;;5046085;28;20455;-79
2023/06/19 12:20:49;;;;;;;11.80;8.00;;;25.90;93.60;;;;;;5041973;28;20457;-77
2023/06/19 12:23:17;;;;;;;7.83;7.13;;;25.80;93.70;;;;;;5045166;28;20562;-78
2023/06/19 12:25:45;;;;;;;7.33;6.60;;;25.80;93.80;;;;;;5040927;28;20443;-80
2023/06/19 12:28:18;;;;;;;8.10;7.30;;;25.80;93.80;;;;;;5043434;28;20499;-79
2023/06/19 12:30:51;;;;;;;8.80;7.03;;;25.80;93.70;;;;;;5043795;28;20478;-79
2023/06/19 12:33:20;;;;;;;9.30;7.10;;;25.70;93.70;;;;;;5042661;28;20439;-79
2023/06/19 12:35:48;;;;;;;8.10;7.40;;;25.70;93.80;;;;;;5043389;28;20434;-79
2023/06/19 12:38:17;;;;;;;7.90;6.30;;;25.70;93.90;;;;;;5040662;28;20478;-79
2023/06/19 12:40:46;;;;;;;11.13;8.60;;;25.70;94.00;;;;;;5041830;28;20435;-79
2023/06/19 12:43:15;;;;;;;8.40;7.60;;;25.80;94.10;;;;;;5040164;28;20451;-79
2023/06/19 12:45:43;;;;;;;9.07;8.10;;;25.80;94.00;;;;;;5045629;28;20447;-80
2023/06/19 12:48:12;;;;;;;8.00;7.20;;;25.80;94.00;;;;;;5044014;28;20471;-80
2023/06/19 12:50:40;;;;;;;8.10;7.40;;;25.80;94.00;;;;;;5044460;28;20446;-79
2023/06/19 12:53:08;;;;;;;9.90;8.10;;;25.90;94.00;;;;;;5043488;28;20474;-79
2023/06/19 12:55:37;;;;;;;9.67;8.87;;;25.90;94.00;;;;;;5047570;28;20445;-77